createdAt,value
2022-10-18T00:01:48.608Z,133.88
2022-10-18T00:04:17.906Z,141.02
2022-10-18T00:06:45.955Z,113.18
2022-10-18T00:09:14.388Z,136.52
2022-10-18T00:11:43.817Z,131.77
2022-10-18T00:14:11.682Z,111.18
2022-10-18T00:16:39.429Z,110.22
2022-10-18T00:19:08.790Z,106.85
2022-10-18T00:21:39.885Z,109.35
2022-10-18T00:24:07.812Z,112.10
2022-10-18T00:26:36.182Z,117.22
2022-10-18T00:29:06.859Z,98.57
2022-10-18T00:31:36.878Z,106.75
2022-10-18T00:34:12.378Z,105.88
2022-10-18T00:36:40.638Z,108.78
2022-10-18T00:39:09.989Z,100.07
2022-10-18T00:41:38.626Z,109.30
2022-10-18T00:44:28.239Z,103.65
2022-10-18T00:47:02.469Z,96.13
2022-10-18T00:49:32.561Z,101.05
2022-10-18T00:52:05.332Z,92.43
2022-10-18T00:54:37.267Z,103.60
2022-10-18T00:57:06.259Z,103.00
2022-10-18T00:59:37.295Z,95.93
2022-10-18T01:04:35.989Z,98.25
2022-10-18T01:07:25.984Z,92.80
2022-10-18T01:09:56.492Z,91.95
2022-10-18T01:12:49.335Z,94.95
2022-10-18T01:15:39.385Z,98.20
2022-10-18T01:18:42.234Z,88.55
2022-10-18T01:21:47.643Z,92.65
2022-10-18T01:24:54.431Z,92.88
2022-10-18T01:28:05.855Z,91.60
2022-10-18T01:30:41.647Z,96.13
2022-10-18T01:33:15.304Z,91.35
2022-10-18T01:35:52.099Z,100.15
2022-10-18T01:38:23.523Z,91.57
2022-10-18T01:40:53.046Z,81.57
2022-10-18T01:43:48.159Z,80.18
2022-10-18T01:46:19.424Z,82.68
2022-10-18T01:51:40.051Z,87.25
2022-10-18T01:54:07.843Z,83.40
2022-10-18T01:56:52.300Z,83.32
2022-10-18T01:59:29.637Z,81.88
2022-10-18T02:02:11.346Z,81.63
2022-10-18T02:05:02.491Z,76.70
2022-10-18T02:07:36.809Z,75.07
2022-10-18T02:10:10.035Z,68.40
2022-10-18T02:12:42.615Z,72.28
2022-10-18T02:15:17.317Z,75.00
2022-10-18T02:17:46.874Z,70.95
2022-10-18T02:20:20.604Z,63.35
2022-10-18T02:22:55.720Z,74.70
2022-10-18T02:25:30.539Z,61.67
2022-10-18T02:27:59.041Z,60.58
2022-10-18T02:30:36.880Z,54.40
2022-10-18T02:33:17.570Z,49.30
2022-10-18T02:35:52.026Z,41.65
2022-10-18T02:38:24.550Z,45.95
2022-10-18T02:40:52.914Z,38.88
2022-10-18T02:43:24.640Z,44.15
2022-10-18T02:45:52.648Z,37.70
2022-10-18T02:48:20.383Z,39.17
2022-10-18T02:50:54.706Z,41.78
2022-10-18T02:53:22.600Z,38.30
2022-10-18T02:55:53.409Z,43.30
2022-10-18T02:58:21.300Z,39.83
2022-10-18T03:00:55.013Z,38.15
2022-10-18T03:03:22.840Z,34.63
2022-10-18T03:05:51.737Z,39.50
2022-10-18T03:08:20.221Z,41.67
2022-10-18T03:10:48.046Z,36.70
2022-10-18T03:13:16.560Z,37.85
2022-10-18T03:15:44.428Z,37.33
2022-10-18T03:18:12.667Z,38.40
2022-10-18T03:20:40.643Z,45.08
2022-10-18T03:23:08.613Z,41.42
2022-10-18T03:25:36.317Z,37.63
2022-10-18T03:28:29.395Z,43.22
2022-10-18T03:31:04.616Z,42.35
2022-10-18T03:33:33.037Z,37.55
2022-10-18T03:36:04.076Z,37.75
2022-10-18T03:41:02.500Z,39.03
2022-10-18T03:43:30.475Z,36.38
2022-10-18T03:46:01.715Z,36.30
2022-10-18T03:48:29.528Z,41.08
2022-10-18T03:50:57.285Z,38.08
2022-10-18T03:53:53.543Z,35.78
2022-10-18T03:56:21.362Z,36.05
2022-10-18T03:58:49.118Z,36.85
2022-10-18T04:01:19.345Z,40.40
2022-10-18T04:03:47.447Z,40.85
2022-10-18T04:06:15.407Z,38.47
2022-10-18T04:08:43.316Z,38.65
2022-10-18T04:11:12.289Z,51.03
2022-10-18T04:13:40.112Z,38.33
2022-10-18T04:16:10.110Z,37.20
2022-10-18T04:18:39.711Z,37.15
2022-10-18T04:21:07.503Z,36.90
2022-10-18T04:23:37.977Z,42.22
2022-10-18T04:26:10.676Z,40.35
2022-10-18T04:28:40.411Z,34.25
2022-10-18T04:31:10.708Z,36.15
2022-10-18T04:33:38.934Z,37.67
2022-10-18T04:36:07.123Z,36.08
2022-10-18T04:38:35.006Z,37.63
2022-10-18T04:41:03.007Z,33.67
2022-10-18T04:43:31.064Z,35.88
2022-10-18T04:45:58.897Z,46.42
2022-10-18T04:48:26.900Z,35.67
2022-10-18T04:50:54.810Z,40.78
2022-10-18T04:53:22.689Z,41.50
2022-10-18T04:55:50.963Z,42.13
2022-10-18T04:58:19.816Z,36.17
2022-10-18T05:00:49.210Z,39.67
2022-10-18T05:03:18.829Z,37.10
2022-10-18T05:06:01.204Z,39.13
2022-10-18T05:08:32.603Z,37.67
2022-10-18T05:11:01.069Z,36.97
2022-10-18T05:13:31.260Z,38.13
2022-10-18T05:16:00.435Z,40.93
2022-10-18T05:18:28.359Z,45.97
2022-10-18T05:20:56.308Z,37.55
2022-10-18T05:23:24.076Z,37.72
2022-10-18T05:25:52.073Z,36.47
2022-10-18T05:31:11.841Z,44.78
2022-10-18T05:33:39.838Z,38.42
2022-10-18T05:36:08.190Z,49.05
2022-10-18T05:38:42.446Z,52.47
2022-10-18T05:41:10.853Z,44.60
2022-10-18T05:43:40.824Z,39.45
2022-10-18T05:46:13.712Z,37.65
2022-10-18T05:49:10.381Z,50.92
2022-10-18T05:51:38.397Z,41.05
2022-10-18T05:54:06.368Z,46.63
2022-10-18T05:56:34.335Z,38.63
2022-10-18T05:59:05.219Z,42.05
2022-10-18T06:01:33.111Z,40.03
2022-10-18T06:04:19.336Z,48.25
2022-10-18T06:06:47.364Z,45.22
2022-10-18T06:09:15.126Z,49.28
2022-10-18T06:11:43.014Z,48.47
2022-10-18T06:14:20.194Z,49.08
2022-10-18T06:16:48.106Z,47.00
2022-10-18T06:19:15.862Z,44.97
2022-10-18T06:21:44.140Z,46.70
2022-10-18T06:24:18.720Z,50.13
2022-10-18T06:26:46.786Z,59.75
2022-10-18T06:29:26.712Z,53.35
2022-10-18T06:31:54.647Z,50.05
2022-10-18T06:34:22.494Z,49.47
2022-10-18T06:36:55.018Z,61.42
2022-10-18T06:39:27.084Z,49.13
2022-10-18T06:41:54.833Z,56.55
2022-10-18T06:44:22.697Z,51.92
2022-10-18T06:46:51.763Z,44.78
2022-10-18T06:49:20.323Z,52.50
2022-10-18T06:51:48.494Z,50.60
2022-10-18T06:54:18.514Z,49.40
2022-10-18T06:56:46.939Z,64.30
2022-10-18T06:59:15.196Z,52.90
2022-10-18T07:01:44.016Z,48.25
2022-10-18T07:04:12.135Z,54.97
2022-10-18T07:06:40.145Z,48.47
2022-10-18T07:09:07.884Z,54.72
2022-10-18T07:11:35.747Z,50.88
2022-10-18T07:14:06.412Z,54.03
2022-10-18T07:16:34.887Z,50.88
2022-10-18T07:19:05.719Z,53.92
2022-10-18T07:21:34.089Z,50.63
2022-10-18T07:24:01.853Z,51.50
2022-10-18T07:26:33.422Z,42.95
2022-10-18T07:29:07.757Z,45.60
2022-10-18T07:31:36.808Z,51.67
2022-10-18T07:34:06.071Z,48.92
2022-10-18T07:36:34.769Z,45.10
2022-10-18T07:39:02.705Z,51.75
2022-10-18T07:41:55.442Z,53.90
2022-10-18T07:44:23.344Z,51.72
2022-10-18T07:46:51.296Z,77.80
2022-10-18T07:49:20.839Z,51.50
2022-10-18T07:51:51.458Z,47.47
2022-10-18T07:54:22.599Z,59.22
2022-10-18T07:56:50.321Z,48.20
2022-10-18T07:59:18.183Z,53.22
2022-10-18T08:02:11.519Z,47.90
2022-10-18T08:04:39.428Z,71.43
2022-10-18T08:07:07.208Z,52.42
2022-10-18T08:09:35.243Z,51.95
2022-10-18T08:12:04.347Z,51.45
2022-10-18T08:14:32.607Z,51.22
2022-10-18T08:17:00.295Z,53.13
2022-10-18T08:20:11.264Z,59.50
2022-10-18T08:22:40.836Z,52.83
2022-10-18T08:25:33.597Z,46.92
2022-10-18T08:28:02.165Z,51.70
2022-10-18T08:30:55.535Z,54.50
2022-10-18T08:33:23.884Z,51.85
2022-10-18T08:35:59.464Z,57.00
2022-10-18T08:38:30.602Z,57.08
2022-10-18T08:44:27.484Z,51.53
2022-10-18T08:47:01.048Z,55.33
2022-10-18T08:49:38.266Z,58.72
2022-10-18T08:52:15.296Z,60.33
2022-10-18T08:55:36.772Z,58.80
2022-10-18T08:58:15.528Z,49.00
2022-10-18T09:01:06.295Z,53.28
2022-10-18T09:03:58.686Z,62.28
2022-10-18T09:06:49.062Z,55.72
2022-10-18T09:09:54.474Z,54.43
2022-10-18T09:12:42.951Z,68.45
2022-10-18T09:15:48.658Z,62.80
2022-10-18T09:18:34.405Z,84.50
2022-10-18T09:21:17.435Z,62.25
2022-10-18T09:23:50.171Z,61.00
2022-10-18T09:26:21.524Z,57.70
2022-10-18T09:28:58.991Z,61.92
2022-10-18T09:31:34.286Z,58.83
2022-10-18T09:34:23.813Z,55.92
2022-10-18T09:36:56.718Z,57.13
2022-10-18T09:39:35.621Z,68.22
2022-10-18T09:42:12.372Z,62.67
2022-10-18T09:44:55.381Z,69.30
2022-10-18T09:47:34.381Z,58.95
2022-10-18T09:50:15.591Z,63.55
2022-10-18T09:53:02.412Z,66.43
2022-10-18T09:55:35.802Z,67.78
2022-10-18T09:58:08.401Z,69.85
2022-10-18T10:00:48.691Z,72.13
2022-10-18T10:03:17.652Z,72.72
2022-10-18T10:05:45.870Z,69.75
2022-10-18T10:08:13.700Z,84.47
2022-10-18T10:10:47.789Z,78.25
2022-10-18T10:13:23.270Z,82.22
2022-10-18T10:16:01.608Z,70.63
2022-10-18T10:18:36.684Z,82.18
2022-10-18T10:21:07.219Z,69.53
2022-10-18T10:23:55.993Z,70.22
2022-10-18T10:26:34.927Z,79.53
2022-10-18T10:29:03.178Z,70.97
2022-10-18T10:31:32.039Z,93.80
2022-10-18T10:34:15.307Z,73.63
2022-10-18T10:37:41.706Z,107.88
2022-10-18T10:40:41.741Z,74.45
2022-10-18T10:43:36.646Z,76.35
2022-10-18T10:46:20.213Z,76.43
2022-10-18T10:49:21.048Z,90.13
2022-10-18T10:52:08.105Z,70.57
2022-10-18T10:54:50.368Z,79.68
2022-10-18T10:57:27.951Z,77.88
2022-10-18T10:59:59.973Z,77.43
2022-10-18T11:02:33.932Z,84.68
2022-10-18T11:05:43.120Z,69.00
2022-10-18T11:08:13.464Z,72.22
2022-10-18T11:17:26.218Z,80.15
2022-10-18T11:20:09.770Z,75.50
2022-10-18T11:22:46.944Z,94.32
2022-10-18T11:25:16.982Z,74.97
2022-10-18T11:28:26.249Z,100.32
2022-10-18T11:31:01.787Z,80.88
2022-10-18T11:34:14.298Z,97.80
2022-10-18T11:37:29.122Z,78.47
2022-10-18T11:40:10.954Z,96.65
2022-10-18T11:43:16.611Z,87.13
2022-10-18T11:46:11.941Z,109.00
2022-10-18T11:49:29.984Z,81.88
2022-10-18T11:52:27.244Z,82.75
2022-10-18T11:55:04.927Z,78.10
2022-10-18T11:57:53.866Z,82.40
2022-10-18T12:00:29.435Z,83.47
2022-10-18T12:03:15.309Z,76.72
2022-10-18T12:05:46.508Z,74.45
2022-10-18T12:08:26.302Z,75.03
2022-10-18T12:11:06.099Z,102.72
2022-10-18T12:14:06.245Z,72.65
2022-10-18T12:16:51.009Z,67.30
2022-10-18T12:19:33.211Z,86.90
2022-10-18T12:22:24.614Z,71.53
2022-10-18T12:24:52.704Z,79.32
2022-10-18T12:27:35.528Z,80.28
2022-10-18T12:30:30.063Z,73.85
2022-10-18T12:33:27.904Z,86.40
2022-10-18T12:36:24.353Z,92.63
2022-10-18T12:39:00.809Z,89.85
2022-10-18T12:41:31.346Z,72.57
2022-10-18T12:44:20.875Z,83.78
2022-10-18T12:46:51.533Z,75.28
2022-10-18T12:49:37.427Z,80.03
2022-10-18T12:52:23.718Z,83.57
2022-10-18T12:55:15.303Z,88.47
2022-10-18T12:57:51.836Z,75.82
2022-10-18T13:00:32.073Z,87.93
2022-10-18T13:03:18.231Z,91.80
2022-10-18T13:05:54.963Z,74.90
2022-10-18T13:08:51.293Z,85.05
2022-10-18T13:11:35.967Z,82.78
2022-10-18T13:14:12.758Z,89.53
2022-10-18T13:17:21.304Z,85.50
2022-10-18T13:20:25.136Z,82.43
2022-10-18T13:26:22.317Z,91.72
2022-10-18T13:29:35.100Z,78.47
2022-10-18T13:32:48.034Z,82.82
2022-10-18T13:35:47.280Z,88.72
2022-10-18T13:38:43.022Z,88.93
2022-10-18T13:41:14.417Z,84.18
2022-10-18T13:44:03.870Z,80.28
2022-10-18T13:46:34.716Z,86.38
2022-10-18T13:49:17.449Z,100.75
2022-10-18T13:51:45.649Z,91.57
2022-10-18T13:54:54.922Z,83.28
2022-10-18T13:57:41.846Z,89.70
2022-10-18T14:00:49.073Z,86.47
2022-10-18T14:06:35.325Z,88.70
2022-10-18T14:09:25.743Z,92.95
2022-10-18T14:12:28.557Z,97.55
2022-10-18T14:15:26.709Z,86.85
2022-10-18T14:18:14.315Z,78.45
2022-10-18T14:21:01.538Z,81.57
2022-10-18T14:23:41.694Z,76.55
2022-10-18T14:26:21.719Z,88.60
2022-10-18T14:29:27.422Z,77.30
2022-10-18T14:31:58.768Z,83.10
2022-10-18T14:34:33.020Z,86.40
2022-10-18T14:37:29.257Z,87.45
2022-10-18T14:39:57.398Z,83.05
2022-10-18T14:42:27.198Z,80.85
2022-10-18T14:44:56.608Z,85.97
2022-10-18T14:47:36.552Z,92.25
2022-10-18T14:50:04.806Z,91.25
2022-10-18T14:52:57.666Z,89.25
2022-10-18T14:55:32.703Z,100.82
2022-10-18T14:58:00.856Z,90.07
2022-10-18T15:00:38.024Z,81.65
2022-10-18T15:03:11.210Z,69.10
2022-10-18T15:05:56.597Z,58.10
2022-10-18T15:08:27.154Z,70.63
2022-10-18T15:10:56.003Z,58.42
2022-10-18T15:13:25.534Z,41.10
2022-10-18T15:15:54.608Z,46.08
2022-10-18T15:18:25.938Z,46.90
2022-10-18T15:21:23.015Z,30.80
2022-10-18T15:23:52.525Z,29.23
2022-10-18T15:26:48.116Z,27.60
2022-10-18T15:29:20.762Z,24.15
2022-10-18T15:31:50.459Z,66.45
2022-10-18T15:34:28.180Z,26.63
2022-10-18T15:36:57.363Z,26.27
2022-10-18T15:39:31.348Z,32.33
2022-10-18T15:42:01.924Z,35.28
2022-10-18T15:44:51.780Z,35.20
2022-10-18T15:47:25.198Z,41.22
2022-10-18T15:49:56.852Z,52.58
2022-10-18T15:52:50.436Z,56.80
2022-10-18T15:55:30.844Z,67.07
2022-10-18T15:58:26.536Z,75.07
2022-10-18T16:00:58.591Z,103.25
2022-10-18T16:03:27.185Z,92.97
2022-10-18T16:06:07.891Z,86.80
2022-10-18T16:08:42.649Z,106.20
2022-10-18T16:11:22.388Z,112.30
2022-10-18T16:13:54.011Z,96.63
2022-10-18T16:16:51.860Z,99.53
2022-10-18T16:19:21.503Z,103.20
2022-10-18T16:21:52.693Z,88.95
2022-10-18T16:24:22.063Z,98.65
2022-10-18T16:26:56.886Z,101.45
2022-10-18T16:29:26.073Z,98.13
2022-10-18T16:31:58.474Z,123.95
2022-10-18T16:34:27.327Z,90.22
2022-10-18T16:36:56.704Z,103.60
2022-10-18T16:39:25.871Z,108.67
2022-10-18T16:41:53.997Z,104.05
2022-10-18T16:44:22.117Z,128.23
2022-10-18T16:46:54.113Z,123.70
2022-10-18T16:49:26.478Z,120.88
2022-10-18T16:51:55.460Z,122.97
2022-10-18T16:54:24.094Z,130.48
2022-10-18T16:56:52.203Z,147.18
2022-10-18T16:59:31.738Z,138.85
2022-10-18T17:02:04.876Z,154.85
2022-10-18T17:04:37.096Z,132.75
2022-10-18T17:07:06.342Z,156.70
2022-10-18T17:09:45.111Z,170.25
2022-10-18T17:12:16.687Z,192.95
2022-10-18T17:14:47.165Z,180.57
2022-10-18T17:17:16.161Z,212.80
2022-10-18T17:19:51.221Z,196.85
2022-10-18T17:23:21.716Z,217.05
2022-10-18T17:26:04.894Z,200.35
2022-10-18T17:28:41.218Z,152.38
2022-10-18T17:31:40.900Z,103.03
2022-10-18T17:34:22.574Z,72.75
2022-10-18T17:37:10.971Z,61.78
2022-10-18T17:39:39.706Z,40.45
2022-10-18T17:42:15.975Z,45.08
2022-10-18T17:44:46.094Z,50.50
2022-10-18T17:47:15.811Z,41.50
2022-10-18T17:49:45.200Z,34.40
2022-10-18T17:52:18.293Z,44.13
2022-10-18T17:54:46.243Z,41.55
2022-10-18T17:57:14.172Z,40.63
2022-10-18T17:59:48.277Z,48.35
2022-10-18T18:02:16.214Z,48.08
2022-10-18T18:04:44.296Z,50.60
2022-10-18T18:07:15.850Z,47.05
2022-10-18T18:09:44.814Z,63.95
2022-10-18T18:12:12.841Z,63.67
2022-10-18T18:14:51.889Z,90.22
2022-10-18T18:17:28.727Z,88.50
2022-10-18T18:20:02.446Z,68.72
2022-10-18T18:22:30.616Z,78.72
2022-10-18T18:24:58.504Z,80.70
2022-10-18T18:27:26.740Z,96.30
2022-10-18T18:29:55.325Z,99.97
2022-10-18T18:32:23.171Z,123.80
2022-10-18T18:34:51.033Z,129.55
2022-10-18T18:37:18.721Z,101.43
2022-10-18T18:39:46.819Z,66.75
2022-10-18T18:42:17.798Z,82.10
2022-10-18T18:44:46.356Z,87.63
2022-10-18T18:47:14.311Z,108.65
2022-10-18T18:49:42.587Z,81.13
2022-10-18T18:52:10.423Z,103.97
2022-10-18T18:54:38.413Z,86.65
2022-10-18T18:57:06.635Z,67.88
2022-10-18T18:59:34.503Z,86.45
2022-10-18T19:02:10.085Z,75.93
2022-10-18T19:04:39.581Z,101.35
2022-10-18T19:07:12.518Z,93.32
2022-10-18T19:09:54.237Z,84.15
2022-10-18T19:12:27.670Z,70.00
2022-10-18T19:14:55.651Z,58.10
2022-10-18T19:17:27.144Z,51.40
2022-10-18T19:19:55.244Z,79.47
2022-10-18T19:22:23.029Z,67.97
2022-10-18T19:24:50.866Z,84.15
2022-10-18T19:27:18.616Z,54.20
2022-10-18T19:29:49.009Z,44.13
2022-10-18T19:32:18.846Z,47.97
2022-10-18T19:34:46.848Z,48.85
2022-10-18T19:37:15.899Z,47.75
2022-10-18T19:39:43.812Z,56.67
2022-10-18T19:42:19.232Z,46.90
2022-10-18T19:44:53.291Z,47.38
2022-10-18T19:47:21.247Z,47.97
2022-10-18T19:49:49.815Z,49.60
2022-10-18T19:52:17.796Z,52.63
2022-10-18T19:54:45.840Z,54.30
2022-10-18T19:57:13.883Z,47.65
2022-10-18T19:59:42.237Z,47.25
2022-10-18T20:02:14.653Z,53.45
2022-10-18T20:04:42.643Z,54.75
2022-10-18T20:07:10.407Z,57.13
2022-10-18T20:09:39.851Z,53.78
2022-10-18T20:12:07.922Z,48.20
2022-10-18T20:14:38.737Z,56.20
2022-10-18T20:17:06.757Z,62.28
2022-10-18T20:19:34.562Z,56.33
2022-10-18T20:22:02.566Z,56.67
2022-10-18T20:24:30.564Z,55.95
2022-10-18T20:27:05.263Z,60.90
2022-10-18T20:29:37.695Z,47.63
2022-10-18T20:32:05.926Z,53.80
2022-10-18T20:34:33.803Z,49.40
2022-10-18T20:37:02.914Z,49.67
2022-10-18T20:39:30.923Z,47.40
2022-10-18T20:41:58.716Z,44.13
2022-10-18T20:44:27.349Z,48.70
2022-10-18T20:46:55.114Z,44.15
2022-10-18T20:49:23.929Z,42.97
2022-10-18T20:51:54.953Z,48.70
2022-10-18T20:54:22.971Z,50.08
2022-10-18T20:56:50.671Z,48.03
2022-10-18T20:59:18.705Z,45.92
2022-10-18T21:01:47.664Z,40.30
2022-10-18T21:04:15.500Z,46.22
2022-10-18T21:06:49.201Z,43.47
2022-10-18T21:09:19.068Z,45.42
2022-10-18T21:11:50.212Z,43.75
2022-10-18T21:17:11.721Z,48.40
2022-10-18T21:19:39.640Z,52.78
2022-10-18T21:22:07.544Z,52.47
2022-10-18T21:24:35.453Z,56.35
2022-10-18T21:27:03.381Z,56.60
2022-10-18T21:29:32.770Z,59.15
2022-10-18T21:32:01.102Z,61.70
2022-10-18T21:34:29.773Z,59.97
2022-10-18T21:37:22.433Z,60.05
2022-10-18T21:39:50.701Z,66.43
2022-10-18T21:42:18.605Z,58.10
2022-10-18T21:44:46.547Z,59.58
2022-10-18T21:47:15.744Z,66.85
2022-10-18T21:49:43.566Z,72.20
2022-10-18T21:52:11.433Z,71.40
2022-10-18T21:54:39.336Z,65.45
2022-10-18T21:57:07.096Z,67.00
2022-10-18T21:59:35.829Z,73.60
2022-10-18T22:02:03.722Z,72.10
2022-10-18T22:04:35.907Z,70.85
2022-10-18T22:07:05.949Z,70.22
2022-10-18T22:09:58.150Z,71.75
2022-10-18T22:12:26.152Z,76.60
2022-10-18T22:14:53.945Z,83.55
2022-10-18T22:17:21.804Z,79.75
2022-10-18T22:19:49.613Z,68.43
2022-10-18T22:22:17.494Z,76.40
2022-10-18T22:24:45.349Z,72.75
2022-10-18T22:27:13.237Z,72.03
2022-10-18T22:29:41.380Z,76.03
2022-10-18T22:32:09.299Z,80.78
2022-10-18T22:34:37.289Z,79.03
2022-10-18T22:37:05.133Z,81.88
2022-10-18T22:39:32.915Z,73.97
2022-10-18T22:42:00.937Z,74.38
2022-10-18T22:44:29.775Z,70.35
2022-10-18T22:46:57.574Z,76.72
2022-10-18T22:49:25.321Z,80.80
2022-10-18T22:51:53.173Z,74.88
2022-10-18T22:54:20.920Z,83.43
2022-10-18T22:56:48.827Z,79.65
2022-10-18T22:59:16.588Z,80.05
2022-10-18T23:01:44.579Z,83.18
2022-10-18T23:04:12.263Z,83.90
2022-10-18T23:06:40.683Z,96.05
2022-10-18T23:09:11.078Z,84.88
2022-10-18T23:11:42.012Z,93.18
2022-10-18T23:14:10.954Z,89.20
2022-10-18T23:16:38.726Z,78.72
2022-10-18T23:19:06.758Z,92.22
2022-10-18T23:21:34.718Z,82.88
2022-10-18T23:24:02.749Z,88.03
2022-10-18T23:26:30.537Z,90.72
2022-10-18T23:28:59.952Z,78.88
2022-10-18T23:31:30.700Z,75.63
2022-10-18T23:34:01.131Z,80.43
2022-10-18T23:36:30.778Z,79.65
2022-10-18T23:38:59.060Z,71.13
2022-10-18T23:41:30.873Z,77.57
2022-10-18T23:43:58.687Z,80.40
2022-10-18T23:46:26.517Z,69.28
2022-10-18T23:48:54.409Z,70.28
2022-10-18T23:51:22.181Z,66.03
2022-10-18T23:53:50.672Z,63.88
2022-10-18T23:56:18.470Z,76.05
2022-10-18T23:58:46.782Z,65.38
